sensor_id;sensor_type;location;lat;lon;timestamp;P1;durP1;ratioP1;P2;durP2;ratioP2
57720;SDS011;43562;43.064;0.160;2022-09-02T00:00:04;5.70;;;4.68;;
57720;SDS011;43562;43.064;0.160;2022-09-02T00:02:32;6.78;;;4.18;;
57720;SDS011;43562;43.064;0.160;2022-09-02T00:04:58;5.80;;;4.38;;
57720;SDS011;43562;43.064;0.160;2022-09-02T00:07:24;6.40;;;4.80;;
57720;SDS011;43562;43.064;0.160;2022-09-02T00:09:50;11.68;;;4.43;;
57720;SDS011;43562;43.064;0.160;2022-09-02T00:12:16;7.72;;;4.15;;
57720;SDS011;43562;43.064;0.160;2022-09-02T00:14:43;5.60;;;4.20;;
57720;SDS011;43562;43.064;0.160;2022-09-02T00:17:09;6.47;;;4.22;;
57720;SDS011;43562;43.064;0.160;2022-09-02T00:19:35;7.28;;;4.35;;
57720;SDS011;43562;43.064;0.160;2022-09-02T00:22:02;4.63;;;3.92;;
57720;SDS011;43562;43.064;0.160;2022-09-02T00:24:28;6.43;;;4.85;;
57720;SDS011;43562;43.064;0.160;2022-09-02T00:26:54;9.05;;;4.68;;
57720;SDS011;43562;43.064;0.160;2022-09-02T00:29:20;7.93;;;4.18;;
57720;SDS011;43562;43.064;0.160;2022-09-02T00:31:46;9.02;;;5.15;;
57720;SDS011;43562;43.064;0.160;2022-09-02T00:34:12;5.35;;;4.13;;
57720;SDS011;43562;43.064;0.160;2022-09-02T00:36:39;6.88;;;5.00;;
57720;SDS011;43562;43.064;0.160;2022-09-02T00:39:05;6.85;;;4.80;;
57720;SDS011;43562;43.064;0.160;2022-09-02T00:41:32;6.05;;;4.25;;
57720;SDS011;43562;43.064;0.160;2022-09-02T00:44:00;5.88;;;4.20;;
57720;SDS011;43562;43.064;0.160;2022-09-02T00:46:28;6.43;;;4.38;;
57720;SDS011;43562;43.064;0.160;2022-09-02T00:51:27;5.57;;;3.85;;
57720;SDS011;43562;43.064;0.160;2022-09-02T00:53:55;5.95;;;4.18;;
57720;SDS011;43562;43.064;0.160;2022-09-02T00:56:22;6.45;;;4.35;;
57720;SDS011;43562;43.064;0.160;2022-09-02T00:58:50;6.63;;;4.00;;
57720;SDS011;43562;43.064;0.160;2022-09-02T01:01:17;6.65;;;4.00;;
57720;SDS011;43562;43.064;0.160;2022-09-02T01:03:43;6.97;;;4.40;;
57720;SDS011;43562;43.064;0.160;2022-09-02T01:06:10;6.57;;;4.78;;
57720;SDS011;43562;43.064;0.160;2022-09-02T01:08:39;5.78;;;4.55;;
57720;SDS011;43562;43.064;0.160;2022-09-02T01:11:07;5.75;;;4.68;;
57720;SDS011;43562;43.064;0.160;2022-09-02T01:13:39;5.78;;;4.47;;
57720;SDS011;43562;43.064;0.160;2022-09-02T01:16:09;6.65;;;4.95;;
57720;SDS011;43562;43.064;0.160;2022-09-02T01:18:36;7.15;;;4.82;;
57720;SDS011;43562;43.064;0.160;2022-09-02T01:21:03;7.85;;;4.32;;
57720;SDS011;43562;43.064;0.160;2022-09-02T01:23:29;8.02;;;4.65;;
57720;SDS011;43562;43.064;0.160;2022-09-02T01:25:56;6.47;;;4.45;;
57720;SDS011;43562;43.064;0.160;2022-09-02T01:28:22;8.40;;;4.60;;
57720;SDS011;43562;43.064;0.160;2022-09-02T01:30:50;5.90;;;4.93;;
57720;SDS011;43562;43.064;0.160;2022-09-02T01:33:17;6.18;;;4.72;;
57720;SDS011;43562;43.064;0.160;2022-09-02T01:35:43;7.70;;;4.80;;
57720;SDS011;43562;43.064;0.160;2022-09-02T01:38:09;5.97;;;4.10;;
57720;SDS011;43562;43.064;0.160;2022-09-02T01:40:36;7.90;;;4.72;;
57720;SDS011;43562;43.064;0.160;2022-09-02T01:43:04;6.88;;;4.55;;
57720;SDS011;43562;43.064;0.160;2022-09-02T01:45:32;5.50;;;4.70;;
57720;SDS011;43562;43.064;0.160;2022-09-02T01:47:59;6.53;;;4.95;;
57720;SDS011;43562;43.064;0.160;2022-09-02T01:50:25;6.82;;;5.03;;
57720;SDS011;43562;43.064;0.160;2022-09-02T01:52:52;4.85;;;4.25;;
57720;SDS011;43562;43.064;0.160;2022-09-02T01:55:18;8.35;;;4.72;;
57720;SDS011;43562;43.064;0.160;2022-09-02T01:57:44;8.57;;;4.63;;
57720;SDS011;43562;43.064;0.160;2022-09-02T02:00:11;6.93;;;4.28;;
57720;SDS011;43562;43.064;0.160;2022-09-02T02:02:38;7.70;;;4.50;;
57720;SDS011;43562;43.064;0.160;2022-09-02T02:05:04;5.93;;;4.63;;
57720;SDS011;43562;43.064;0.160;2022-09-02T02:07:30;6.68;;;4.80;;
57720;SDS011;43562;43.064;0.160;2022-09-02T02:09:56;9.80;;;4.40;;
57720;SDS011;43562;43.064;0.160;2022-09-02T02:12:22;14.05;;;6.55;;
57720;SDS011;43562;43.064;0.160;2022-09-02T02:14:48;5.85;;;4.45;;
57720;SDS011;43562;43.064;0.160;2022-09-02T02:17:14;6.55;;;4.60;;
57720;SDS011;43562;43.064;0.160;2022-09-02T02:19:41;10.40;;;4.78;;
57720;SDS011;43562;43.064;0.160;2022-09-02T02:22:08;8.65;;;5.15;;
57720;SDS011;43562;43.064;0.160;2022-09-02T02:24:34;4.88;;;3.97;;
57720;SDS011;43562;43.064;0.160;2022-09-02T02:27:01;4.75;;;3.92;;
57720;SDS011;43562;43.064;0.160;2022-09-02T02:29:27;9.70;;;4.93;;
57720;SDS011;43562;43.064;0.160;2022-09-02T02:31:53;5.47;;;4.30;;
57720;SDS011;43562;43.064;0.160;2022-09-02T02:34:19;7.10;;;4.40;;
57720;SDS011;43562;43.064;0.160;2022-09-02T02:36:46;5.60;;;4.70;;
57720;SDS011;43562;43.064;0.160;2022-09-02T02:39:12;6.30;;;4.60;;
57720;SDS011;43562;43.064;0.160;2022-09-02T02:41:38;7.30;;;4.78;;
57720;SDS011;43562;43.064;0.160;2022-09-02T02:44:04;11.23;;;5.00;;
57720;SDS011;43562;43.064;0.160;2022-09-02T02:46:31;6.47;;;4.65;;
57720;SDS011;43562;43.064;0.160;2022-09-02T02:48:59;7.45;;;4.90;;
57720;SDS011;43562;43.064;0.160;2022-09-02T02:51:26;7.95;;;4.72;;
57720;SDS011;43562;43.064;0.160;2022-09-02T02:53:52;5.82;;;5.25;;
57720;SDS011;43562;43.064;0.160;2022-09-02T02:56:18;6.32;;;4.75;;
57720;SDS011;43562;43.064;0.160;2022-09-02T02:58:44;6.85;;;5.03;;
57720;SDS011;43562;43.064;0.160;2022-09-02T03:01:10;7.05;;;4.68;;
57720;SDS011;43562;43.064;0.160;2022-09-02T03:03:36;8.00;;;4.82;;
57720;SDS011;43562;43.064;0.160;2022-09-02T03:06:02;8.15;;;4.40;;
57720;SDS011;43562;43.064;0.160;2022-09-02T03:08:28;6.68;;;5.00;;
57720;SDS011;43562;43.064;0.160;2022-09-02T03:10:55;8.98;;;5.45;;
57720;SDS011;43562;43.064;0.160;2022-09-02T03:13:22;5.97;;;4.25;;
57720;SDS011;43562;43.064;0.160;2022-09-02T03:15:49;12.77;;;4.75;;
57720;SDS011;43562;43.064;0.160;2022-09-02T03:18:15;9.70;;;4.30;;
57720;SDS011;43562;43.064;0.160;2022-09-02T03:20:41;7.20;;;4.80;;
57720;SDS011;43562;43.064;0.160;2022-09-02T03:23:09;7.82;;;4.38;;
57720;SDS011;43562;43.064;0.160;2022-09-02T03:25:36;6.05;;;4.70;;
57720;SDS011;43562;43.064;0.160;2022-09-02T03:28:03;6.40;;;4.75;;
57720;SDS011;43562;43.064;0.160;2022-09-02T03:30:30;6.35;;;4.78;;
57720;SDS011;43562;43.064;0.160;2022-09-02T03:32:57;7.80;;;4.50;;
57720;SDS011;43562;43.064;0.160;2022-09-02T03:35:24;6.35;;;5.00;;
57720;SDS011;43562;43.064;0.160;2022-09-02T03:37:50;7.05;;;4.57;;
57720;SDS011;43562;43.064;0.160;2022-09-02T03:40:21;7.68;;;4.68;;
57720;SDS011;43562;43.064;0.160;2022-09-02T03:42:47;9.18;;;4.80;;
57720;SDS011;43562;43.064;0.160;2022-09-02T03:45:14;8.07;;;4.95;;
57720;SDS011;43562;43.064;0.160;2022-09-02T03:47:40;7.50;;;5.15;;
57720;SDS011;43562;43.064;0.160;2022-09-02T03:50:14;6.05;;;4.43;;
57720;SDS011;43562;43.064;0.160;2022-09-02T03:52:41;7.95;;;4.40;;
57720;SDS011;43562;43.064;0.160;2022-09-02T03:55:07;8.55;;;4.95;;
57720;SDS011;43562;43.064;0.160;2022-09-02T03:57:34;25.92;;;12.52;;
57720;SDS011;43562;43.064;0.160;2022-09-02T04:00:00;27.85;;;12.43;;
57720;SDS011;43562;43.064;0.160;2022-09-02T04:02:26;9.52;;;6.00;;
57720;SDS011;43562;43.064;0.160;2022-09-02T04:04:52;10.43;;;4.80;;
57720;SDS011;43562;43.064;0.160;2022-09-02T04:07:18;6.72;;;4.65;;
57720;SDS011;43562;43.064;0.160;2022-09-02T04:09:45;5.53;;;4.78;;
57720;SDS011;43562;43.064;0.160;2022-09-02T04:12:11;7.03;;;5.18;;
57720;SDS011;43562;43.064;0.160;2022-09-02T04:14:37;7.47;;;4.85;;
57720;SDS011;43562;43.064;0.160;2022-09-02T04:17:03;7.65;;;4.68;;
57720;SDS011;43562;43.064;0.160;2022-09-02T04:19:29;8.57;;;4.72;;
57720;SDS011;43562;43.064;0.160;2022-09-02T04:21:55;5.90;;;4.53;;
57720;SDS011;43562;43.064;0.160;2022-09-02T04:24:21;7.32;;;5.75;;
57720;SDS011;43562;43.064;0.160;2022-09-02T04:26:48;8.43;;;4.90;;
57720;SDS011;43562;43.064;0.160;2022-09-02T04:29:15;8.40;;;5.40;;
57720;SDS011;43562;43.064;0.160;2022-09-02T04:31:41;8.18;;;4.85;;
57720;SDS011;43562;43.064;0.160;2022-09-02T04:34:07;6.28;;;4.65;;
57720;SDS011;43562;43.064;0.160;2022-09-02T04:36:33;10.80;;;4.63;;
57720;SDS011;43562;43.064;0.160;2022-09-02T04:38:59;6.95;;;4.07;;
57720;SDS011;43562;43.064;0.160;2022-09-02T04:41:26;9.38;;;4.97;;
57720;SDS011;43562;43.064;0.160;2022-09-02T04:43:53;7.18;;;4.70;;
57720;SDS011;43562;43.064;0.160;2022-09-02T04:46:20;13.80;;;5.35;;
57720;SDS011;43562;43.064;0.160;2022-09-02T04:48:46;6.80;;;4.85;;
57720;SDS011;43562;43.064;0.160;2022-09-02T04:51:14;7.03;;;4.40;;
57720;SDS011;43562;43.064;0.160;2022-09-02T04:53:40;10.38;;;5.35;;
57720;SDS011;43562;43.064;0.160;2022-09-02T04:56:07;8.13;;;4.40;;
57720;SDS011;43562;43.064;0.160;2022-09-02T04:58:34;8.85;;;4.13;;
57720;SDS011;43562;43.064;0.160;2022-09-02T05:01:07;7.30;;;4.22;;
57720;SDS011;43562;43.064;0.160;2022-09-02T05:03:34;8.18;;;4.43;;
57720;SDS011;43562;43.064;0.160;2022-09-02T05:06:01;8.85;;;4.43;;
57720;SDS011;43562;43.064;0.160;2022-09-02T05:08:27;6.22;;;4.20;;
57720;SDS011;43562;43.064;0.160;2022-09-02T05:10:53;7.60;;;5.05;;
57720;SDS011;43562;43.064;0.160;2022-09-02T05:13:19;7.40;;;4.90;;
57720;SDS011;43562;43.064;0.160;2022-09-02T05:15:46;7.65;;;4.93;;
57720;SDS011;43562;43.064;0.160;2022-09-02T05:18:12;10.55;;;4.75;;
57720;SDS011;43562;43.064;0.160;2022-09-02T05:20:38;9.38;;;4.53;;
57720;SDS011;43562;43.064;0.160;2022-09-02T05:23:05;6.38;;;4.25;;
57720;SDS011;43562;43.064;0.160;2022-09-02T05:25:31;5.75;;;4.20;;
57720;SDS011;43562;43.064;0.160;2022-09-02T05:27:57;9.80;;;5.45;;
57720;SDS011;43562;43.064;0.160;2022-09-02T05:30:23;6.18;;;4.35;;
57720;SDS011;43562;43.064;0.160;2022-09-02T05:32:50;9.30;;;4.97;;
57720;SDS011;43562;43.064;0.160;2022-09-02T05:35:16;6.38;;;4.22;;
57720;SDS011;43562;43.064;0.160;2022-09-02T05:37:42;7.70;;;4.25;;
57720;SDS011;43562;43.064;0.160;2022-09-02T05:40:08;5.72;;;4.03;;
57720;SDS011;43562;43.064;0.160;2022-09-02T05:42:37;6.60;;;4.00;;
57720;SDS011;43562;43.064;0.160;2022-09-02T05:45:03;7.50;;;4.55;;
57720;SDS011;43562;43.064;0.160;2022-09-02T05:47:29;7.82;;;4.28;;
57720;SDS011;43562;43.064;0.160;2022-09-02T05:49:55;6.75;;;4.28;;
57720;SDS011;43562;43.064;0.160;2022-09-02T05:52:21;6.72;;;4.90;;
57720;SDS011;43562;43.064;0.160;2022-09-02T05:54:48;9.07;;;4.55;;
57720;SDS011;43562;43.064;0.160;2022-09-02T05:57:15;8.30;;;3.97;;
57720;SDS011;43562;43.064;0.160;2022-09-02T05:59:41;8.88;;;4.78;;
57720;SDS011;43562;43.064;0.160;2022-09-02T06:02:11;5.50;;;4.15;;
57720;SDS011;43562;43.064;0.160;2022-09-02T06:04:39;7.10;;;4.35;;
57720;SDS011;43562;43.064;0.160;2022-09-02T06:07:05;6.75;;;4.53;;
57720;SDS011;43562;43.064;0.160;2022-09-02T06:09:32;6.60;;;4.90;;
57720;SDS011;43562;43.064;0.160;2022-09-02T06:11:58;6.20;;;4.68;;
57720;SDS011;43562;43.064;0.160;2022-09-02T06:14:24;9.00;;;4.60;;
57720;SDS011;43562;43.064;0.160;2022-09-02T06:16:51;7.18;;;5.13;;
57720;SDS011;43562;43.064;0.160;2022-09-02T06:19:18;6.10;;;4.68;;
57720;SDS011;43562;43.064;0.160;2022-09-02T06:21:45;9.05;;;4.97;;
57720;SDS011;43562;43.064;0.160;2022-09-02T06:24:11;7.63;;;4.03;;
57720;SDS011;43562;43.064;0.160;2022-09-02T06:26:37;6.43;;;4.82;;
57720;SDS011;43562;43.064;0.160;2022-09-02T06:29:04;10.07;;;4.78;;
57720;SDS011;43562;43.064;0.160;2022-09-02T06:31:31;7.03;;;4.78;;
57720;SDS011;43562;43.064;0.160;2022-09-02T06:33:57;7.45;;;4.50;;
57720;SDS011;43562;43.064;0.160;2022-09-02T06:36:26;7.15;;;5.13;;
57720;SDS011;43562;43.064;0.160;2022-09-02T06:38:53;9.13;;;4.68;;
57720;SDS011;43562;43.064;0.160;2022-09-02T06:41:24;6.10;;;4.47;;
57720;SDS011;43562;43.064;0.160;2022-09-02T06:43:57;6.63;;;4.32;;
57720;SDS011;43562;43.064;0.160;2022-09-02T06:46:25;7.47;;;4.95;;
57720;SDS011;43562;43.064;0.160;2022-09-02T06:48:52;5.82;;;4.80;;
57720;SDS011;43562;43.064;0.160;2022-09-02T06:51:19;7.97;;;4.40;;
57720;SDS011;43562;43.064;0.160;2022-09-02T06:53:45;9.68;;;4.80;;
57720;SDS011;43562;43.064;0.160;2022-09-02T06:56:11;9.57;;;4.50;;
57720;SDS011;43562;43.064;0.160;2022-09-02T06:58:38;7.78;;;4.43;;
57720;SDS011;43562;43.064;0.160;2022-09-02T07:01:04;5.70;;;4.30;;
57720;SDS011;43562;43.064;0.160;2022-09-02T07:03:31;7.97;;;4.22;;
57720;SDS011;43562;43.064;0.160;2022-09-02T07:06:16;6.72;;;4.32;;
57720;SDS011;43562;43.064;0.160;2022-09-02T07:08:42;9.95;;;4.72;;
57720;SDS011;43562;43.064;0.160;2022-09-02T07:11:21;7.15;;;4.63;;
57720;SDS011;43562;43.064;0.160;2022-09-02T07:13:48;4.93;;;4.07;;
57720;SDS011;43562;43.064;0.160;2022-09-02T07:16:15;10.85;;;5.38;;
57720;SDS011;43562;43.064;0.160;2022-09-02T07:18:41;10.18;;;4.65;;
57720;SDS011;43562;43.064;0.160;2022-09-02T07:21:11;7.35;;;5.18;;
57720;SDS011;43562;43.064;0.160;2022-09-02T07:23:37;7.35;;;4.43;;
57720;SDS011;43562;43.064;0.160;2022-09-02T07:26:03;7.18;;;4.35;;
57720;SDS011;43562;43.064;0.160;2022-09-02T07:28:30;7.07;;;4.07;;
57720;SDS011;43562;43.064;0.160;2022-09-02T07:30:57;7.85;;;4.07;;
57720;SDS011;43562;43.064;0.160;2022-09-02T07:33:24;8.82;;;4.80;;
57720;SDS011;43562;43.064;0.160;2022-09-02T07:35:50;6.07;;;4.32;;
57720;SDS011;43562;43.064;0.160;2022-09-02T07:38:17;8.82;;;4.25;;
57720;SDS011;43562;43.064;0.160;2022-09-02T07:40:43;7.05;;;4.50;;
57720;SDS011;43562;43.064;0.160;2022-09-02T07:43:11;9.60;;;5.90;;
57720;SDS011;43562;43.064;0.160;2022-09-02T07:45:37;7.90;;;4.55;;
57720;SDS011;43562;43.064;0.160;2022-09-02T07:48:04;6.85;;;3.97;;
57720;SDS011;43562;43.064;0.160;2022-09-02T07:50:33;7.28;;;3.90;;
57720;SDS011;43562;43.064;0.160;2022-09-02T07:53:00;7.25;;;4.35;;
57720;SDS011;43562;43.064;0.160;2022-09-02T07:55:29;6.65;;;4.40;;
57720;SDS011;43562;43.064;0.160;2022-09-02T07:57:55;5.57;;;4.75;;
57720;SDS011;43562;43.064;0.160;2022-09-02T08:00:21;5.93;;;3.95;;
57720;SDS011;43562;43.064;0.160;2022-09-02T08:02:51;7.53;;;3.80;;
57720;SDS011;43562;43.064;0.160;2022-09-02T08:05:17;6.78;;;4.18;;
57720;SDS011;43562;43.064;0.160;2022-09-02T08:07:43;5.10;;;3.80;;
57720;SDS011;43562;43.064;0.160;2022-09-02T08:10:09;5.70;;;3.92;;
57720;SDS011;43562;43.064;0.160;2022-09-02T08:12:37;6.95;;;3.83;;
57720;SDS011;43562;43.064;0.160;2022-09-02T08:15:04;4.95;;;3.40;;
57720;SDS011;43562;43.064;0.160;2022-09-02T08:17:30;4.10;;;3.55;;
57720;SDS011;43562;43.064;0.160;2022-09-02T08:19:56;4.75;;;3.30;;
57720;SDS011;43562;43.064;0.160;2022-09-02T08:22:22;6.53;;;3.90;;
57720;SDS011;43562;43.064;0.160;2022-09-02T08:24:49;5.60;;;3.60;;
57720;SDS011;43562;43.064;0.160;2022-09-02T08:27:15;7.57;;;3.60;;
57720;SDS011;43562;43.064;0.160;2022-09-02T08:29:43;7.18;;;3.88;;
57720;SDS011;43562;43.064;0.160;2022-09-02T08:32:09;5.53;;;3.88;;
57720;SDS011;43562;43.064;0.160;2022-09-02T08:34:35;6.05;;;3.92;;
57720;SDS011;43562;43.064;0.160;2022-09-02T08:37:01;5.03;;;3.42;;
57720;SDS011;43562;43.064;0.160;2022-09-02T08:39:27;9.30;;;3.60;;
57720;SDS011;43562;43.064;0.160;2022-09-02T08:41:58;5.20;;;3.75;;
57720;SDS011;43562;43.064;0.160;2022-09-02T08:44:27;5.10;;;3.53;;
57720;SDS011;43562;43.064;0.160;2022-09-02T08:46:55;3.90;;;3.50;;
57720;SDS011;43562;43.064;0.160;2022-09-02T08:49:24;4.43;;;3.30;;
57720;SDS011;43562;43.064;0.160;2022-09-02T08:51:52;5.72;;;3.53;;
57720;SDS011;43562;43.064;0.160;2022-09-02T08:54:29;6.35;;;3.40;;
57720;SDS011;43562;43.064;0.160;2022-09-02T08:56:56;5.55;;;3.60;;
57720;SDS011;43562;43.064;0.160;2022-09-02T08:59:23;5.75;;;3.20;;
57720;SDS011;43562;43.064;0.160;2022-09-02T09:04:18;6.53;;;3.50;;
57720;SDS011;43562;43.064;0.160;2022-09-02T09:14:31;4.78;;;3.47;;
57720;SDS011;43562;43.064;0.160;2022-09-02T09:17:00;6.20;;;3.30;;
57720;SDS011;43562;43.064;0.160;2022-09-02T09:22:11;5.95;;;3.05;;
57720;SDS011;43562;43.064;0.160;2022-09-02T09:24:38;4.65;;;3.58;;
57720;SDS011;43562;43.064;0.160;2022-09-02T09:27:06;3.83;;;3.25;;
57720;SDS011;43562;43.064;0.160;2022-09-02T09:29:34;6.18;;;3.50;;
57720;SDS011;43562;43.064;0.160;2022-09-02T09:32:00;5.82;;;3.35;;
57720;SDS011;43562;43.064;0.160;2022-09-02T09:37:23;4.70;;;3.65;;
57720;SDS011;43562;43.064;0.160;2022-09-02T09:39:52;6.55;;;3.35;;
57720;SDS011;43562;43.064;0.160;2022-09-02T09:42:31;4.55;;;3.25;;
57720;SDS011;43562;43.064;0.160;2022-09-02T09:44:58;5.32;;;3.03;;
57720;SDS011;43562;43.064;0.160;2022-09-02T09:47:24;4.47;;;3.30;;
57720;SDS011;43562;43.064;0.160;2022-09-02T09:52:21;3.83;;;2.92;;
57720;SDS011;43562;43.064;0.160;2022-09-02T09:54:51;3.63;;;2.70;;
57720;SDS011;43562;43.064;0.160;2022-09-02T09:57:30;3.08;;;2.75;;
57720;SDS011;43562;43.064;0.160;2022-09-02T09:59:56;3.95;;;2.80;;
57720;SDS011;43562;43.064;0.160;2022-09-02T10:02:26;2.53;;;2.33;;
57720;SDS011;43562;43.064;0.160;2022-09-02T10:05:38;6.00;;;2.60;;
57720;SDS011;43562;43.064;0.160;2022-09-02T10:07:40;4.47;;;2.78;;
57720;SDS011;43562;43.064;0.160;2022-09-02T10:10:28;3.53;;;2.40;;
57720;SDS011;43562;43.064;0.160;2022-09-02T10:12:54;4.10;;;2.58;;
57720;SDS011;43562;43.064;0.160;2022-09-02T10:15:28;5.03;;;2.63;;
57720;SDS011;43562;43.064;0.160;2022-09-02T10:21:15;4.05;;;2.72;;
57720;SDS011;43562;43.064;0.160;2022-09-02T10:23:40;7.90;;;3.20;;
57720;SDS011;43562;43.064;0.160;2022-09-02T10:38:36;3.58;;;2.55;;
57720;SDS011;43562;43.064;0.160;2022-09-02T10:41:09;4.45;;;2.95;;
57720;SDS011;43562;43.064;0.160;2022-09-02T10:46:23;4.22;;;2.72;;
57720;SDS011;43562;43.064;0.160;2022-09-02T10:48:55;5.18;;;2.35;;
57720;SDS011;43562;43.064;0.160;2022-09-02T10:51:32;4.25;;;3.05;;
57720;SDS011;43562;43.064;0.160;2022-09-02T10:54:12;5.65;;;3.00;;
57720;SDS011;43562;43.064;0.160;2022-09-02T10:56:44;4.68;;;3.30;;
57720;SDS011;43562;43.064;0.160;2022-09-02T10:59:34;5.47;;;3.38;;
57720;SDS011;43562;43.064;0.160;2022-09-02T11:04:45;4.07;;;3.22;;
57720;SDS011;43562;43.064;0.160;2022-09-02T11:07:17;7.63;;;3.00;;
57720;SDS011;43562;43.064;0.160;2022-09-02T11:09:46;3.30;;;2.85;;
57720;SDS011;43562;43.064;0.160;2022-09-02T11:12:36;3.50;;;3.13;;
57720;SDS011;43562;43.064;0.160;2022-09-02T11:17:35;6.28;;;3.35;;
57720;SDS011;43562;43.064;0.160;2022-09-02T11:20:08;3.90;;;2.83;;
57720;SDS011;43562;43.064;0.160;2022-09-02T11:25:26;6.65;;;3.92;;
57720;SDS011;43562;43.064;0.160;2022-09-02T11:30:26;4.25;;;3.03;;
57720;SDS011;43562;43.064;0.160;2022-09-02T11:45:46;3.72;;;3.00;;
57720;SDS011;43562;43.064;0.160;2022-09-02T11:48:44;4.72;;;3.35;;
57720;SDS011;43562;43.064;0.160;2022-09-02T11:53:56;5.53;;;3.50;;
57720;SDS011;43562;43.064;0.160;2022-09-02T11:56:35;4.05;;;3.60;;
57720;SDS011;43562;43.064;0.160;2022-09-02T11:59:04;4.72;;;3.10;;
57720;SDS011;43562;43.064;0.160;2022-09-02T12:03:58;5.30;;;3.40;;
57720;SDS011;43562;43.064;0.160;2022-09-02T12:06:25;5.75;;;3.33;;
57720;SDS011;43562;43.064;0.160;2022-09-02T12:11:41;4.65;;;3.38;;
57720;SDS011;43562;43.064;0.160;2022-09-02T12:17:03;4.85;;;3.13;;
57720;SDS011;43562;43.064;0.160;2022-09-02T12:19:40;4.47;;;3.30;;
57720;SDS011;43562;43.064;0.160;2022-09-02T12:24:52;6.45;;;3.53;;
57720;SDS011;43562;43.064;0.160;2022-09-02T12:27:53;3.28;;;2.80;;
57720;SDS011;43562;43.064;0.160;2022-09-02T12:30:11;3.38;;;3.08;;
57720;SDS011;43562;43.064;0.160;2022-09-02T12:35:11;3.83;;;3.13;;
57720;SDS011;43562;43.064;0.160;2022-09-02T12:40:18;4.75;;;3.47;;
57720;SDS011;43562;43.064;0.160;2022-09-02T12:42:48;6.70;;;3.50;;
57720;SDS011;43562;43.064;0.160;2022-09-02T12:45:22;3.97;;;3.22;;
57720;SDS011;43562;43.064;0.160;2022-09-02T12:53:07;5.40;;;3.05;;
57720;SDS011;43562;43.064;0.160;2022-09-02T12:55:35;3.75;;;3.30;;
57720;SDS011;43562;43.064;0.160;2022-09-02T12:58:12;3.90;;;3.22;;
57720;SDS011;43562;43.064;0.160;2022-09-02T13:03:15;7.93;;;3.15;;
57720;SDS011;43562;43.064;0.160;2022-09-02T13:19:29;5.97;;;3.47;;
57720;SDS011;43562;43.064;0.160;2022-09-02T13:22:10;5.53;;;3.33;;
57720;SDS011;43562;43.064;0.160;2022-09-02T13:34:41;3.78;;;2.92;;
57720;SDS011;43562;43.064;0.160;2022-09-02T13:39:53;8.38;;;3.00;;
57720;SDS011;43562;43.064;0.160;2022-09-02T13:42:21;3.75;;;2.83;;
57720;SDS011;43562;43.064;0.160;2022-09-02T13:44:47;3.45;;;3.10;;
57720;SDS011;43562;43.064;0.160;2022-09-02T13:47:16;4.05;;;3.20;;
57720;SDS011;43562;43.064;0.160;2022-09-02T13:49:47;4.60;;;3.50;;
57720;SDS011;43562;43.064;0.160;2022-09-02T13:52:18;5.72;;;3.60;;
57720;SDS011;43562;43.064;0.160;2022-09-02T13:54:45;4.07;;;3.30;;
57720;SDS011;43562;43.064;0.160;2022-09-02T13:57:16;5.07;;;3.15;;
57720;SDS011;43562;43.064;0.160;2022-09-02T13:59:46;4.20;;;3.00;;
57720;SDS011;43562;43.064;0.160;2022-09-02T14:02:21;9.98;;;3.28;;
57720;SDS011;43562;43.064;0.160;2022-09-02T14:04:48;4.47;;;2.60;;
57720;SDS011;43562;43.064;0.160;2022-09-02T14:07:15;5.60;;;3.40;;
57720;SDS011;43562;43.064;0.160;2022-09-02T14:09:43;5.45;;;2.97;;
57720;SDS011;43562;43.064;0.160;2022-09-02T14:12:10;4.13;;;3.10;;
57720;SDS011;43562;43.064;0.160;2022-09-02T14:14:36;9.43;;;3.42;;
57720;SDS011;43562;43.064;0.160;2022-09-02T14:17:23;5.97;;;3.33;;
57720;SDS011;43562;43.064;0.160;2022-09-02T14:19:50;6.35;;;3.00;;
57720;SDS011;43562;43.064;0.160;2022-09-02T14:22:21;3.95;;;2.92;;
57720;SDS011;43562;43.064;0.160;2022-09-02T14:24:48;4.88;;;3.33;;
57720;SDS011;43562;43.064;0.160;2022-09-02T14:27:17;3.92;;;3.00;;
57720;SDS011;43562;43.064;0.160;2022-09-02T14:29:44;4.35;;;3.20;;
57720;SDS011;43562;43.064;0.160;2022-09-02T14:32:12;5.40;;;3.88;;
57720;SDS011;43562;43.064;0.160;2022-09-02T14:34:42;6.32;;;3.25;;
57720;SDS011;43562;43.064;0.160;2022-09-02T14:37:19;6.30;;;3.50;;
57720;SDS011;43562;43.064;0.160;2022-09-02T14:42:29;6.00;;;3.37;;
57720;SDS011;43562;43.064;0.160;2022-09-02T14:44:55;8.35;;;3.92;;
57720;SDS011;43562;43.064;0.160;2022-09-02T14:47:27;5.43;;;3.30;;
57720;SDS011;43562;43.064;0.160;2022-09-02T14:49:53;6.78;;;3.50;;
57720;SDS011;43562;43.064;0.160;2022-09-02T14:52:20;6.57;;;3.75;;
57720;SDS011;43562;43.064;0.160;2022-09-02T14:54:49;6.63;;;3.35;;
57720;SDS011;43562;43.064;0.160;2022-09-02T14:57:22;3.88;;;3.28;;
57720;SDS011;43562;43.064;0.160;2022-09-02T14:59:49;9.50;;;3.63;;
57720;SDS011;43562;43.064;0.160;2022-09-02T15:02:20;9.57;;;3.85;;
57720;SDS011;43562;43.064;0.160;2022-09-02T15:04:46;6.40;;;3.58;;
57720;SDS011;43562;43.064;0.160;2022-09-02T15:07:13;7.00;;;3.28;;
57720;SDS011;43562;43.064;0.160;2022-09-02T15:09:39;8.20;;;3.72;;
57720;SDS011;43562;43.064;0.160;2022-09-02T15:12:07;5.78;;;4.07;;
57720;SDS011;43562;43.064;0.160;2022-09-02T15:14:34;5.72;;;3.80;;
57720;SDS011;43562;43.064;0.160;2022-09-02T15:17:01;8.13;;;3.97;;
57720;SDS011;43562;43.064;0.160;2022-09-02T15:19:28;5.32;;;4.07;;
57720;SDS011;43562;43.064;0.160;2022-09-02T15:21:54;6.15;;;4.05;;
57720;SDS011;43562;43.064;0.160;2022-09-02T15:24:20;6.15;;;3.60;;
57720;SDS011;43562;43.064;0.160;2022-09-02T15:26:46;5.25;;;3.42;;
57720;SDS011;43562;43.064;0.160;2022-09-02T15:29:12;5.55;;;3.70;;
57720;SDS011;43562;43.064;0.160;2022-09-02T15:31:39;5.13;;;3.50;;
57720;SDS011;43562;43.064;0.160;2022-09-02T15:34:06;3.97;;;3.28;;
57720;SDS011;43562;43.064;0.160;2022-09-02T15:36:32;6.20;;;3.15;;
57720;SDS011;43562;43.064;0.160;2022-09-02T15:38:58;4.93;;;4.50;;
57720;SDS011;43562;43.064;0.160;2022-09-02T15:41:24;7.90;;;3.63;;
57720;SDS011;43562;43.064;0.160;2022-09-02T15:43:51;5.38;;;3.55;;
57720;SDS011;43562;43.064;0.160;2022-09-02T15:46:22;5.90;;;3.70;;
57720;SDS011;43562;43.064;0.160;2022-09-02T15:48:48;4.35;;;3.70;;
57720;SDS011;43562;43.064;0.160;2022-09-02T15:51:15;5.20;;;3.78;;
57720;SDS011;43562;43.064;0.160;2022-09-02T15:53:42;5.05;;;3.97;;
57720;SDS011;43562;43.064;0.160;2022-09-02T15:56:14;3.92;;;3.53;;
57720;SDS011;43562;43.064;0.160;2022-09-02T15:58:41;7.45;;;3.60;;
57720;SDS011;43562;43.064;0.160;2022-09-02T16:01:07;6.10;;;4.07;;
57720;SDS011;43562;43.064;0.160;2022-09-02T16:03:34;4.88;;;3.50;;
57720;SDS011;43562;43.064;0.160;2022-09-02T16:06:00;4.82;;;3.53;;
57720;SDS011;43562;43.064;0.160;2022-09-02T16:08:27;4.90;;;3.88;;
57720;SDS011;43562;43.064;0.160;2022-09-02T16:10:53;5.38;;;3.58;;
57720;SDS011;43562;43.064;0.160;2022-09-02T16:13:19;6.22;;;3.33;;
57720;SDS011;43562;43.064;0.160;2022-09-02T16:15:45;5.60;;;3.55;;
57720;SDS011;43562;43.064;0.160;2022-09-02T16:18:12;6.40;;;3.63;;
57720;SDS011;43562;43.064;0.160;2022-09-02T16:20:38;6.95;;;4.32;;
57720;SDS011;43562;43.064;0.160;2022-09-02T16:23:04;6.75;;;4.18;;
57720;SDS011;43562;43.064;0.160;2022-09-02T16:25:30;8.82;;;5.35;;
57720;SDS011;43562;43.064;0.160;2022-09-02T16:27:56;7.30;;;3.83;;
57720;SDS011;43562;43.064;0.160;2022-09-02T16:30:22;6.63;;;4.00;;
57720;SDS011;43562;43.064;0.160;2022-09-02T16:32:49;6.32;;;4.10;;
57720;SDS011;43562;43.064;0.160;2022-09-02T16:35:15;7.57;;;4.88;;
57720;SDS011;43562;43.064;0.160;2022-09-02T16:37:41;6.50;;;4.75;;
57720;SDS011;43562;43.064;0.160;2022-09-02T16:40:08;16.75;;;8.45;;
57720;SDS011;43562;43.064;0.160;2022-09-02T16:42:35;6.07;;;4.43;;
57720;SDS011;43562;43.064;0.160;2022-09-02T16:45:01;9.63;;;6.07;;
57720;SDS011;43562;43.064;0.160;2022-09-02T16:47:28;7.10;;;4.57;;
57720;SDS011;43562;43.064;0.160;2022-09-02T16:49:55;8.32;;;4.55;;